Terminal Aerodrome Forecast
Issued by NWS

Home | Current Version | Previous Version | Text Only | Print | Product List | Glossary On
Versions: 1 2 3 4 5 6 7 8 9 10 11 12 13 14 15 16 17
478
FTUS41 KPBZ 111140
TAFMGW
TAF
KMGW 111140Z 1112/1212 17003KT 5SM -SN OVC035
     FM111400 16007KT P6SM OVC080
     FM120300 14007KT 5SM -RA OVC035
     FM120600 19008KT 2SM -RA OVC025=

USA.gov is the U.S. government's official web portal to all federal, state and local government web resources and services.